sensor_id;sensor_type;location;lat;lon;timestamp;P1;durP1;ratioP1;P2;durP2;ratioP2
55216;SDS011;41086;46.736;15.666;2024-01-16T00:00:29;38.60;;;20.20;;
55216;SDS011;41086;46.736;15.666;2024-01-16T00:02:56;41.42;;;21.10;;
55216;SDS011;41086;46.736;15.666;2024-01-16T00:05:23;43.28;;;20.77;;
55216;SDS011;41086;46.736;15.666;2024-01-16T00:07:50;33.17;;;18.70;;
55216;SDS011;41086;46.736;15.666;2024-01-16T00:10:17;31.58;;;16.52;;
55216;SDS011;41086;46.736;15.666;2024-01-16T00:12:43;41.15;;;19.42;;
55216;SDS011;41086;46.736;15.666;2024-01-16T00:17:37;41.58;;;19.10;;
55216;SDS011;41086;46.736;15.666;2024-01-16T00:20:04;32.03;;;17.10;;
55216;SDS011;41086;46.736;15.666;2024-01-16T00:22:32;39.97;;;19.60;;
55216;SDS011;41086;46.736;15.666;2024-01-16T00:24:58;33.40;;;17.35;;
55216;SDS011;41086;46.736;15.666;2024-01-16T00:27:25;39.83;;;20.38;;
55216;SDS011;41086;46.736;15.666;2024-01-16T00:29:52;44.78;;;21.88;;
55216;SDS011;41086;46.736;15.666;2024-01-16T00:32:19;44.53;;;22.05;;
55216;SDS011;41086;46.736;15.666;2024-01-16T00:34:46;34.38;;;20.02;;
55216;SDS011;41086;46.736;15.666;2024-01-16T00:37:13;37.42;;;19.40;;
55216;SDS011;41086;46.736;15.666;2024-01-16T00:39:40;34.67;;;20.00;;
55216;SDS011;41086;46.736;15.666;2024-01-16T00:42:07;37.05;;;20.25;;
55216;SDS011;41086;46.736;15.666;2024-01-16T00:44:34;37.13;;;18.25;;
55216;SDS011;41086;46.736;15.666;2024-01-16T00:47:01;40.83;;;19.10;;
55216;SDS011;41086;46.736;15.666;2024-01-16T00:49:28;35.25;;;17.73;;
55216;SDS011;41086;46.736;15.666;2024-01-16T00:51:55;31.02;;;16.85;;
55216;SDS011;41086;46.736;15.666;2024-01-16T00:54:22;32.35;;;17.08;;
55216;SDS011;41086;46.736;15.666;2024-01-16T00:56:49;39.78;;;19.15;;
55216;SDS011;41086;46.736;15.666;2024-01-16T00:59:16;37.03;;;18.08;;
55216;SDS011;41086;46.736;15.666;2024-01-16T01:01:43;46.70;;;22.88;;
55216;SDS011;41086;46.736;15.666;2024-01-16T01:04:10;40.05;;;21.50;;
55216;SDS011;41086;46.736;15.666;2024-01-16T01:06:37;41.55;;;22.23;;
55216;SDS011;41086;46.736;15.666;2024-01-16T01:09:04;46.83;;;22.00;;
55216;SDS011;41086;46.736;15.666;2024-01-16T01:11:30;45.33;;;21.65;;
55216;SDS011;41086;46.736;15.666;2024-01-16T01:13:57;46.95;;;21.77;;
55216;SDS011;41086;46.736;15.666;2024-01-16T01:16:24;48.45;;;23.30;;
55216;SDS011;41086;46.736;15.666;2024-01-16T01:18:51;39.22;;;21.35;;
55216;SDS011;41086;46.736;15.666;2024-01-16T01:23:45;40.75;;;20.40;;
55216;SDS011;41086;46.736;15.666;2024-01-16T01:26:12;40.67;;;20.80;;
55216;SDS011;41086;46.736;15.666;2024-01-16T01:28:44;41.75;;;20.23;;
55216;SDS011;41086;46.736;15.666;2024-01-16T01:31:11;42.22;;;21.30;;
55216;SDS011;41086;46.736;15.666;2024-01-16T01:36:06;40.45;;;21.17;;
55216;SDS011;41086;46.736;15.666;2024-01-16T01:38:33;38.55;;;19.95;;
55216;SDS011;41086;46.736;15.666;2024-01-16T01:41:00;45.97;;;21.30;;
55216;SDS011;41086;46.736;15.666;2024-01-16T01:43:26;45.83;;;21.42;;
55216;SDS011;41086;46.736;15.666;2024-01-16T01:46:39;41.88;;;20.52;;
55216;SDS011;41086;46.736;15.666;2024-01-16T01:48:45;49.03;;;21.90;;
55216;SDS011;41086;46.736;15.666;2024-01-16T01:51:14;38.50;;;21.20;;
55216;SDS011;41086;46.736;15.666;2024-01-16T01:53:46;44.65;;;21.85;;
55216;SDS011;41086;46.736;15.666;2024-01-16T01:56:19;42.85;;;23.10;;
55216;SDS011;41086;46.736;15.666;2024-01-16T01:58:48;34.13;;;19.95;;
55216;SDS011;41086;46.736;15.666;2024-01-16T02:01:19;38.17;;;21.60;;
55216;SDS011;41086;46.736;15.666;2024-01-16T02:03:48;40.55;;;21.05;;
55216;SDS011;41086;46.736;15.666;2024-01-16T02:06:16;47.20;;;24.67;;
55216;SDS011;41086;46.736;15.666;2024-01-16T02:08:44;48.95;;;23.50;;
55216;SDS011;41086;46.736;15.666;2024-01-16T02:11:12;44.70;;;22.98;;
55216;SDS011;41086;46.736;15.666;2024-01-16T02:13:38;41.65;;;23.67;;
55216;SDS011;41086;46.736;15.666;2024-01-16T02:16:05;48.30;;;23.60;;
55216;SDS011;41086;46.736;15.666;2024-01-16T02:18:43;50.72;;;24.40;;
55216;SDS011;41086;46.736;15.666;2024-01-16T02:21:10;48.78;;;23.75;;
55216;SDS011;41086;46.736;15.666;2024-01-16T02:23:37;41.20;;;20.55;;
55216;SDS011;41086;46.736;15.666;2024-01-16T02:26:04;50.05;;;23.80;;
55216;SDS011;41086;46.736;15.666;2024-01-16T02:28:31;47.17;;;23.95;;
55216;SDS011;41086;46.736;15.666;2024-01-16T02:30:58;53.78;;;26.02;;
55216;SDS011;41086;46.736;15.666;2024-01-16T02:33:25;45.60;;;23.55;;
55216;SDS011;41086;46.736;15.666;2024-01-16T02:35:52;42.03;;;22.27;;
55216;SDS011;41086;46.736;15.666;2024-01-16T02:38:19;50.00;;;22.98;;
55216;SDS011;41086;46.736;15.666;2024-01-16T02:40:45;46.47;;;23.25;;
55216;SDS011;41086;46.736;15.666;2024-01-16T02:43:12;45.90;;;21.08;;
55216;SDS011;41086;46.736;15.666;2024-01-16T02:45:39;35.00;;;17.40;;
55216;SDS011;41086;46.736;15.666;2024-01-16T02:48:06;40.78;;;20.77;;
55216;SDS011;41086;46.736;15.666;2024-01-16T02:53:00;37.00;;;19.30;;
55216;SDS011;41086;46.736;15.666;2024-01-16T02:55:26;37.45;;;18.48;;
55216;SDS011;41086;46.736;15.666;2024-01-16T02:57:53;32.17;;;17.85;;
55216;SDS011;41086;46.736;15.666;2024-01-16T03:00:20;34.15;;;18.80;;
55216;SDS011;41086;46.736;15.666;2024-01-16T03:02:48;40.58;;;19.35;;
55216;SDS011;41086;46.736;15.666;2024-01-16T03:05:15;29.20;;;14.48;;
55216;SDS011;41086;46.736;15.666;2024-01-16T03:07:42;39.22;;;18.08;;
55216;SDS011;41086;46.736;15.666;2024-01-16T03:10:09;30.60;;;14.52;;
55216;SDS011;41086;46.736;15.666;2024-01-16T03:12:36;38.35;;;18.77;;
55216;SDS011;41086;46.736;15.666;2024-01-16T03:17:30;28.55;;;14.25;;
55216;SDS011;41086;46.736;15.666;2024-01-16T03:19:57;31.85;;;17.75;;
55216;SDS011;41086;46.736;15.666;2024-01-16T03:22:24;26.73;;;15.77;;
55216;SDS011;41086;46.736;15.666;2024-01-16T03:24:52;34.53;;;17.70;;
55216;SDS011;41086;46.736;15.666;2024-01-16T03:27:18;22.30;;;13.15;;
55216;SDS011;41086;46.736;15.666;2024-01-16T03:29:46;32.55;;;15.95;;
55216;SDS011;41086;46.736;15.666;2024-01-16T03:32:12;38.03;;;19.33;;
55216;SDS011;41086;46.736;15.666;2024-01-16T03:34:40;37.38;;;18.88;;
55216;SDS011;41086;46.736;15.666;2024-01-16T03:37:07;33.20;;;17.83;;
55216;SDS011;41086;46.736;15.666;2024-01-16T03:39:34;33.58;;;18.17;;
55216;SDS011;41086;46.736;15.666;2024-01-16T03:42:01;30.83;;;16.27;;
55216;SDS011;41086;46.736;15.666;2024-01-16T03:46:56;30.90;;;16.10;;
55216;SDS011;41086;46.736;15.666;2024-01-16T03:49:23;22.38;;;11.77;;
55216;SDS011;41086;46.736;15.666;2024-01-16T03:51:50;26.95;;;14.27;;
55216;SDS011;41086;46.736;15.666;2024-01-16T03:54:17;18.83;;;11.32;;
55216;SDS011;41086;46.736;15.666;2024-01-16T03:56:44;31.20;;;14.48;;
55216;SDS011;41086;46.736;15.666;2024-01-16T03:59:11;13.40;;;6.90;;
55216;SDS011;41086;46.736;15.666;2024-01-16T04:01:38;10.60;;;6.60;;
55216;SDS011;41086;46.736;15.666;2024-01-16T04:04:05;21.38;;;11.45;;
55216;SDS011;41086;46.736;15.666;2024-01-16T04:06:33;29.95;;;15.90;;
55216;SDS011;41086;46.736;15.666;2024-01-16T04:09:00;23.77;;;12.88;;
55216;SDS011;41086;46.736;15.666;2024-01-16T04:11:27;29.27;;;15.07;;
55216;SDS011;41086;46.736;15.666;2024-01-16T04:16:21;32.58;;;17.25;;
55216;SDS011;41086;46.736;15.666;2024-01-16T04:18:48;32.55;;;17.48;;
55216;SDS011;41086;46.736;15.666;2024-01-16T04:21:15;38.08;;;23.00;;
55216;SDS011;41086;46.736;15.666;2024-01-16T04:23:46;42.38;;;17.27;;
55216;SDS011;41086;46.736;15.666;2024-01-16T04:28:39;31.08;;;17.73;;
55216;SDS011;41086;46.736;15.666;2024-01-16T04:31:06;32.42;;;17.15;;
55216;SDS011;41086;46.736;15.666;2024-01-16T04:33:33;35.63;;;17.80;;
55216;SDS011;41086;46.736;15.666;2024-01-16T04:36:00;84.55;;;36.80;;
55216;SDS011;41086;46.736;15.666;2024-01-16T04:38:27;42.35;;;20.35;;
55216;SDS011;41086;46.736;15.666;2024-01-16T04:40:54;31.55;;;16.83;;
55216;SDS011;41086;46.736;15.666;2024-01-16T04:43:22;34.65;;;18.25;;
55216;SDS011;41086;46.736;15.666;2024-01-16T04:45:48;31.38;;;17.33;;
55216;SDS011;41086;46.736;15.666;2024-01-16T04:48:15;32.78;;;16.30;;
55216;SDS011;41086;46.736;15.666;2024-01-16T04:50:43;34.95;;;16.02;;
55216;SDS011;41086;46.736;15.666;2024-01-16T04:53:12;29.80;;;15.52;;
55216;SDS011;41086;46.736;15.666;2024-01-16T04:55:39;211.35;;;90.07;;
55216;SDS011;41086;46.736;15.666;2024-01-16T04:58:05;24.23;;;13.68;;
55216;SDS011;41086;46.736;15.666;2024-01-16T05:00:33;26.98;;;14.80;;
55216;SDS011;41086;46.736;15.666;2024-01-16T05:03:04;29.15;;;16.17;;
55216;SDS011;41086;46.736;15.666;2024-01-16T05:05:31;34.20;;;16.63;;
55216;SDS011;41086;46.736;15.666;2024-01-16T05:08:00;29.83;;;14.68;;
55216;SDS011;41086;46.736;15.666;2024-01-16T05:10:28;35.70;;;17.13;;
55216;SDS011;41086;46.736;15.666;2024-01-16T05:12:55;33.33;;;16.98;;
55216;SDS011;41086;46.736;15.666;2024-01-16T05:15:22;37.22;;;17.08;;
55216;SDS011;41086;46.736;15.666;2024-01-16T05:17:49;33.55;;;16.58;;
55216;SDS011;41086;46.736;15.666;2024-01-16T05:20:16;29.77;;;15.13;;
55216;SDS011;41086;46.736;15.666;2024-01-16T05:22:43;33.05;;;15.32;;
55216;SDS011;41086;46.736;15.666;2024-01-16T05:25:09;34.38;;;16.55;;
55216;SDS011;41086;46.736;15.666;2024-01-16T05:27:36;32.25;;;16.67;;
55216;SDS011;41086;46.736;15.666;2024-01-16T05:30:03;40.03;;;18.67;;
55216;SDS011;41086;46.736;15.666;2024-01-16T05:32:31;32.00;;;15.85;;
55216;SDS011;41086;46.736;15.666;2024-01-16T05:34:58;30.88;;;16.73;;
55216;SDS011;41086;46.736;15.666;2024-01-16T05:37:25;31.35;;;16.27;;
55216;SDS011;41086;46.736;15.666;2024-01-16T05:39:52;36.35;;;16.73;;
55216;SDS011;41086;46.736;15.666;2024-01-16T05:42:18;32.88;;;16.67;;
55216;SDS011;41086;46.736;15.666;2024-01-16T05:44:46;34.90;;;17.63;;
55216;SDS011;41086;46.736;15.666;2024-01-16T05:47:13;34.13;;;19.25;;
55216;SDS011;41086;46.736;15.666;2024-01-16T05:49:41;36.45;;;17.98;;
55216;SDS011;41086;46.736;15.666;2024-01-16T05:52:09;35.22;;;18.42;;
55216;SDS011;41086;46.736;15.666;2024-01-16T05:54:36;35.15;;;15.55;;
55216;SDS011;41086;46.736;15.666;2024-01-16T05:57:03;33.30;;;18.35;;
55216;SDS011;41086;46.736;15.666;2024-01-16T05:59:30;39.67;;;19.77;;
55216;SDS011;41086;46.736;15.666;2024-01-16T06:01:57;32.75;;;16.83;;
55216;SDS011;41086;46.736;15.666;2024-01-16T06:04:24;36.50;;;17.80;;
55216;SDS011;41086;46.736;15.666;2024-01-16T06:06:51;37.05;;;17.73;;
55216;SDS011;41086;46.736;15.666;2024-01-16T06:09:18;35.55;;;16.80;;
55216;SDS011;41086;46.736;15.666;2024-01-16T06:11:45;35.83;;;16.00;;
55216;SDS011;41086;46.736;15.666;2024-01-16T06:14:11;29.52;;;14.80;;
55216;SDS011;41086;46.736;15.666;2024-01-16T06:16:39;29.67;;;16.77;;
55216;SDS011;41086;46.736;15.666;2024-01-16T06:24:01;27.05;;;13.25;;
55216;SDS011;41086;46.736;15.666;2024-01-16T06:26:28;32.63;;;14.40;;
55216;SDS011;41086;46.736;15.666;2024-01-16T06:28:55;26.27;;;12.65;;
55216;SDS011;41086;46.736;15.666;2024-01-16T06:31:21;32.70;;;16.13;;
55216;SDS011;41086;46.736;15.666;2024-01-16T06:33:48;25.55;;;12.32;;
55216;SDS011;41086;46.736;15.666;2024-01-16T06:36:16;30.05;;;15.18;;
55216;SDS011;41086;46.736;15.666;2024-01-16T06:38:42;32.47;;;13.07;;
55216;SDS011;41086;46.736;15.666;2024-01-16T06:41:09;29.88;;;14.50;;
55216;SDS011;41086;46.736;15.666;2024-01-16T06:43:36;19.58;;;11.82;;
55216;SDS011;41086;46.736;15.666;2024-01-16T06:46:03;23.05;;;12.60;;
55216;SDS011;41086;46.736;15.666;2024-01-16T06:48:31;17.02;;;9.40;;
55216;SDS011;41086;46.736;15.666;2024-01-16T06:53:25;18.75;;;8.40;;
55216;SDS011;41086;46.736;15.666;2024-01-16T06:55:52;32.30;;;14.48;;
55216;SDS011;41086;46.736;15.666;2024-01-16T06:58:18;31.58;;;14.35;;
55216;SDS011;41086;46.736;15.666;2024-01-16T07:00:46;32.45;;;15.40;;
55216;SDS011;41086;46.736;15.666;2024-01-16T07:03:13;29.10;;;15.27;;
55216;SDS011;41086;46.736;15.666;2024-01-16T07:05:41;26.73;;;13.60;;
55216;SDS011;41086;46.736;15.666;2024-01-16T07:08:09;33.50;;;15.88;;
55216;SDS011;41086;46.736;15.666;2024-01-16T07:10:36;28.63;;;15.68;;
55216;SDS011;41086;46.736;15.666;2024-01-16T07:13:03;30.92;;;17.25;;
55216;SDS011;41086;46.736;15.666;2024-01-16T07:17:56;33.85;;;15.77;;
55216;SDS011;41086;46.736;15.666;2024-01-16T07:20:23;38.05;;;18.23;;
55216;SDS011;41086;46.736;15.666;2024-01-16T07:22:50;32.67;;;17.33;;
55216;SDS011;41086;46.736;15.666;2024-01-16T07:25:18;31.58;;;17.23;;
55216;SDS011;41086;46.736;15.666;2024-01-16T07:27:44;31.35;;;17.38;;
55216;SDS011;41086;46.736;15.666;2024-01-16T07:30:15;34.65;;;17.73;;
55216;SDS011;41086;46.736;15.666;2024-01-16T07:35:09;36.20;;;16.75;;
55216;SDS011;41086;46.736;15.666;2024-01-16T07:37:36;29.63;;;16.30;;
55216;SDS011;41086;46.736;15.666;2024-01-16T07:40:03;37.90;;;18.67;;
55216;SDS011;41086;46.736;15.666;2024-01-16T07:42:32;39.58;;;19.58;;
55216;SDS011;41086;46.736;15.666;2024-01-16T07:45:01;33.83;;;17.85;;
55216;SDS011;41086;46.736;15.666;2024-01-16T07:47:31;41.88;;;21.83;;
55216;SDS011;41086;46.736;15.666;2024-01-16T07:49:58;50.90;;;22.42;;
55216;SDS011;41086;46.736;15.666;2024-01-16T07:52:27;49.25;;;19.65;;
55216;SDS011;41086;46.736;15.666;2024-01-16T07:54:54;46.90;;;20.15;;
55216;SDS011;41086;46.736;15.666;2024-01-16T07:57:21;344.88;;;41.53;;
55216;SDS011;41086;46.736;15.666;2024-01-16T07:59:47;627.30;;;85.20;;
55216;SDS011;41086;46.736;15.666;2024-01-16T08:02:14;1999.90;;;430.23;;
55216;SDS011;41086;46.736;15.666;2024-01-16T08:04:41;245.48;;;35.55;;
55216;SDS011;41086;46.736;15.666;2024-01-16T08:07:08;1908.68;;;279.30;;
55216;SDS011;41086;46.736;15.666;2024-01-16T08:09:35;1999.90;;;771.67;;
55216;SDS011;41086;46.736;15.666;2024-01-16T08:12:02;1999.90;;;576.90;;
55216;SDS011;41086;46.736;15.666;2024-01-16T08:16:55;299.27;;;68.97;;
55216;SDS011;41086;46.736;15.666;2024-01-16T08:19:22;119.22;;;47.40;;
55216;SDS011;41086;46.736;15.666;2024-01-16T08:21:49;79.78;;;36.33;;
55216;SDS011;41086;46.736;15.666;2024-01-16T08:24:16;98.22;;;40.85;;
55216;SDS011;41086;46.736;15.666;2024-01-16T08:26:43;62.05;;;35.15;;
55216;SDS011;41086;46.736;15.666;2024-01-16T08:29:09;52.70;;;27.70;;
55216;SDS011;41086;46.736;15.666;2024-01-16T08:31:36;44.10;;;24.70;;
55216;SDS011;41086;46.736;15.666;2024-01-16T08:36:30;34.80;;;20.15;;
55216;SDS011;41086;46.736;15.666;2024-01-16T08:38:57;29.58;;;17.42;;
55216;SDS011;41086;46.736;15.666;2024-01-16T08:41:24;31.50;;;17.02;;
55216;SDS011;41086;46.736;15.666;2024-01-16T08:43:51;28.90;;;15.70;;
55216;SDS011;41086;46.736;15.666;2024-01-16T08:46:18;153.02;;;63.17;;
55216;SDS011;41086;46.736;15.666;2024-01-16T08:48:46;32.88;;;15.95;;
55216;SDS011;41086;46.736;15.666;2024-01-16T08:53:41;28.30;;;15.02;;
55216;SDS011;41086;46.736;15.666;2024-01-16T08:56:08;31.85;;;17.88;;
55216;SDS011;41086;46.736;15.666;2024-01-16T08:58:35;29.50;;;15.05;;
55216;SDS011;41086;46.736;15.666;2024-01-16T09:01:04;34.53;;;18.52;;
55216;SDS011;41086;46.736;15.666;2024-01-16T09:03:32;30.30;;;16.13;;
55216;SDS011;41086;46.736;15.666;2024-01-16T09:06:00;29.63;;;16.75;;
55216;SDS011;41086;46.736;15.666;2024-01-16T09:08:28;30.40;;;17.25;;
55216;SDS011;41086;46.736;15.666;2024-01-16T09:10:55;33.05;;;18.90;;
55216;SDS011;41086;46.736;15.666;2024-01-16T09:13:23;30.85;;;17.40;;
55216;SDS011;41086;46.736;15.666;2024-01-16T09:15:50;31.83;;;15.65;;
55216;SDS011;41086;46.736;15.666;2024-01-16T09:18:16;33.78;;;18.55;;
55216;SDS011;41086;46.736;15.666;2024-01-16T09:20:43;31.73;;;16.85;;
55216;SDS011;41086;46.736;15.666;2024-01-16T09:23:10;32.83;;;17.02;;
55216;SDS011;41086;46.736;15.666;2024-01-16T09:25:37;31.58;;;18.25;;
55216;SDS011;41086;46.736;15.666;2024-01-16T09:28:04;37.67;;;19.55;;
55216;SDS011;41086;46.736;15.666;2024-01-16T09:30:31;35.72;;;17.98;;
55216;SDS011;41086;46.736;15.666;2024-01-16T09:32:57;36.10;;;18.73;;
55216;SDS011;41086;46.736;15.666;2024-01-16T09:35:24;33.92;;;16.52;;
55216;SDS011;41086;46.736;15.666;2024-01-16T09:37:51;39.20;;;17.35;;
55216;SDS011;41086;46.736;15.666;2024-01-16T09:40:18;27.08;;;16.13;;
55216;SDS011;41086;46.736;15.666;2024-01-16T09:42:45;28.27;;;16.40;;
55216;SDS011;41086;46.736;15.666;2024-01-16T09:45:12;31.05;;;17.65;;
55216;SDS011;41086;46.736;15.666;2024-01-16T09:47:46;28.98;;;15.98;;
55216;SDS011;41086;46.736;15.666;2024-01-16T09:50:19;27.80;;;16.17;;
55216;SDS011;41086;46.736;15.666;2024-01-16T09:52:46;28.58;;;16.55;;
55216;SDS011;41086;46.736;15.666;2024-01-16T09:55:14;30.48;;;16.65;;
55216;SDS011;41086;46.736;15.666;2024-01-16T09:57:42;27.73;;;15.75;;
55216;SDS011;41086;46.736;15.666;2024-01-16T10:00:11;27.35;;;16.30;;
55216;SDS011;41086;46.736;15.666;2024-01-16T10:02:39;27.45;;;15.40;;
55216;SDS011;41086;46.736;15.666;2024-01-16T10:05:10;25.48;;;15.68;;
55216;SDS011;41086;46.736;15.666;2024-01-16T10:07:39;27.50;;;14.93;;
55216;SDS011;41086;46.736;15.666;2024-01-16T10:10:07;26.98;;;15.50;;
55216;SDS011;41086;46.736;15.666;2024-01-16T10:12:37;22.83;;;15.32;;
55216;SDS011;41086;46.736;15.666;2024-01-16T10:15:06;24.35;;;14.55;;
55216;SDS011;41086;46.736;15.666;2024-01-16T10:20:05;24.27;;;15.55;;
55216;SDS011;41086;46.736;15.666;2024-01-16T10:22:33;24.55;;;15.82;;
55216;SDS011;41086;46.736;15.666;2024-01-16T10:25:12;26.55;;;16.83;;
55216;SDS011;41086;46.736;15.666;2024-01-16T10:27:43;25.33;;;15.20;;
55216;SDS011;41086;46.736;15.666;2024-01-16T10:30:10;29.20;;;15.77;;
55216;SDS011;41086;46.736;15.666;2024-01-16T10:32:38;22.70;;;14.48;;
55216;SDS011;41086;46.736;15.666;2024-01-16T10:35:10;28.45;;;16.35;;
55216;SDS011;41086;46.736;15.666;2024-01-16T10:37:52;26.58;;;15.30;;
55216;SDS011;41086;46.736;15.666;2024-01-16T10:40:23;28.73;;;16.77;;
55216;SDS011;41086;46.736;15.666;2024-01-16T10:45:24;24.73;;;15.90;;
55216;SDS011;41086;46.736;15.666;2024-01-16T10:48:00;28.73;;;17.10;;
55216;SDS011;41086;46.736;15.666;2024-01-16T10:50:30;24.13;;;16.48;;
55216;SDS011;41086;46.736;15.666;2024-01-16T10:52:59;23.63;;;15.95;;
55216;SDS011;41086;46.736;15.666;2024-01-16T10:55:29;25.33;;;15.10;;
55216;SDS011;41086;46.736;15.666;2024-01-16T10:57:56;26.60;;;15.10;;
55216;SDS011;41086;46.736;15.666;2024-01-16T11:00:24;27.65;;;17.63;;
55216;SDS011;41086;46.736;15.666;2024-01-16T11:02:58;25.58;;;15.43;;
55216;SDS011;41086;46.736;15.666;2024-01-16T11:05:31;25.42;;;15.40;;
55216;SDS011;41086;46.736;15.666;2024-01-16T11:08:02;21.67;;;12.50;;
55216;SDS011;41086;46.736;15.666;2024-01-16T11:10:32;25.05;;;15.98;;
55216;SDS011;41086;46.736;15.666;2024-01-16T11:13:00;24.20;;;15.00;;
55216;SDS011;41086;46.736;15.666;2024-01-16T11:15:31;24.55;;;14.90;;
55216;SDS011;41086;46.736;15.666;2024-01-16T11:18:01;28.17;;;15.30;;
55216;SDS011;41086;46.736;15.666;2024-01-16T11:20:31;25.45;;;15.50;;
55216;SDS011;41086;46.736;15.666;2024-01-16T11:23:19;28.02;;;16.40;;
55216;SDS011;41086;46.736;15.666;2024-01-16T11:25:45;28.58;;;16.40;;
55216;SDS011;41086;46.736;15.666;2024-01-16T11:28:13;26.85;;;15.60;;
55216;SDS011;41086;46.736;15.666;2024-01-16T11:30:40;24.58;;;15.52;;
55216;SDS011;41086;46.736;15.666;2024-01-16T11:33:55;26.33;;;16.80;;
55216;SDS011;41086;46.736;15.666;2024-01-16T11:35:59;28.20;;;16.70;;
55216;SDS011;41086;46.736;15.666;2024-01-16T11:38:27;33.03;;;17.85;;
55216;SDS011;41086;46.736;15.666;2024-01-16T11:40:56;29.73;;;18.63;;
55216;SDS011;41086;46.736;15.666;2024-01-16T11:45:59;26.33;;;14.38;;
55216;SDS011;41086;46.736;15.666;2024-01-16T11:48:27;21.98;;;13.65;;
55216;SDS011;41086;46.736;15.666;2024-01-16T11:50:54;22.38;;;13.75;;
55216;SDS011;41086;46.736;15.666;2024-01-16T12:02:17;21.20;;;12.70;;
55216;SDS011;41086;46.736;15.666;2024-01-16T12:04:54;22.27;;;13.27;;
55216;SDS011;41086;46.736;15.666;2024-01-16T12:07:23;21.92;;;12.95;;
55216;SDS011;41086;46.736;15.666;2024-01-16T12:09:50;20.98;;;12.98;;
55216;SDS011;41086;46.736;15.666;2024-01-16T12:12:17;19.23;;;10.90;;
55216;SDS011;41086;46.736;15.666;2024-01-16T12:14:51;16.10;;;10.20;;
55216;SDS011;41086;46.736;15.666;2024-01-16T12:17:21;20.55;;;11.95;;
55216;SDS011;41086;46.736;15.666;2024-01-16T12:19:48;17.02;;;10.63;;
55216;SDS011;41086;46.736;15.666;2024-01-16T12:22:16;17.08;;;8.88;;
55216;SDS011;41086;46.736;15.666;2024-01-16T12:24:47;14.93;;;8.75;;
55216;SDS011;41086;46.736;15.666;2024-01-16T12:27:14;20.00;;;9.35;;
55216;SDS011;41086;46.736;15.666;2024-01-16T12:29:42;16.35;;;9.95;;
55216;SDS011;41086;46.736;15.666;2024-01-16T12:34:46;15.73;;;9.25;;
55216;SDS011;41086;46.736;15.666;2024-01-16T12:37:15;15.60;;;9.30;;
55216;SDS011;41086;46.736;15.666;2024-01-16T12:39:42;14.20;;;9.07;;
55216;SDS011;41086;46.736;15.666;2024-01-16T12:42:10;9.32;;;5.13;;
55216;SDS011;41086;46.736;15.666;2024-01-16T12:44:38;6.25;;;3.55;;
55216;SDS011;41086;46.736;15.666;2024-01-16T12:49:32;5.75;;;3.17;;
55216;SDS011;41086;46.736;15.666;2024-01-16T12:54:48;6.22;;;3.13;;
55216;SDS011;41086;46.736;15.666;2024-01-16T12:57:19;6.20;;;3.75;;
55216;SDS011;41086;46.736;15.666;2024-01-16T12:59:47;2.97;;;1.83;;
55216;SDS011;41086;46.736;15.666;2024-01-16T13:02:19;7.35;;;3.72;;
55216;SDS011;41086;46.736;15.666;2024-01-16T13:04:59;6.50;;;3.20;;
55216;SDS011;41086;46.736;15.666;2024-01-16T13:07:29;7.95;;;4.15;;
55216;SDS011;41086;46.736;15.666;2024-01-16T13:10:09;5.53;;;3.30;;
55216;SDS011;41086;46.736;15.666;2024-01-16T13:12:42;5.88;;;3.05;;
55216;SDS011;41086;46.736;15.666;2024-01-16T13:15:09;5.25;;;3.08;;
55216;SDS011;41086;46.736;15.666;2024-01-16T13:17:37;16.60;;;10.27;;
55216;SDS011;41086;46.736;15.666;2024-01-16T13:20:05;5.85;;;3.20;;
55216;SDS011;41086;46.736;15.666;2024-01-16T13:22:36;7.13;;;3.40;;
55216;SDS011;41086;46.736;15.666;2024-01-16T13:25:12;6.97;;;3.45;;
55216;SDS011;41086;46.736;15.666;2024-01-16T13:27:39;5.43;;;2.70;;
55216;SDS011;41086;46.736;15.666;2024-01-16T13:32:34;4.20;;;2.22;;
55216;SDS011;41086;46.736;15.666;2024-01-16T13:35:04;6.35;;;3.30;;
55216;SDS011;41086;46.736;15.666;2024-01-16T13:37:35;25.77;;;12.15;;
55216;SDS011;41086;46.736;15.666;2024-01-16T13:40:07;4.55;;;3.25;;
55216;SDS011;41086;46.736;15.666;2024-01-16T13:42:41;5.93;;;3.30;;
55216;SDS011;41086;46.736;15.666;2024-01-16T13:45:08;6.47;;;3.40;;
55216;SDS011;41086;46.736;15.666;2024-01-16T13:47:35;5.47;;;2.88;;
55216;SDS011;41086;46.736;15.666;2024-01-16T13:50:07;7.90;;;4.78;;
55216;SDS011;41086;46.736;15.666;2024-01-16T13:52:34;7.35;;;4.40;;
55216;SDS011;41086;46.736;15.666;2024-01-16T13:55:02;6.65;;;3.75;;
55216;SDS011;41086;46.736;15.666;2024-01-16T13:57:32;6.20;;;3.42;;
55216;SDS011;41086;46.736;15.666;2024-01-16T13:59:59;4.25;;;2.20;;
55216;SDS011;41086;46.736;15.666;2024-01-16T14:02:26;5.28;;;2.53;;
55216;SDS011;41086;46.736;15.666;2024-01-16T14:04:53;5.57;;;3.10;;
55216;SDS011;41086;46.736;15.666;2024-01-16T14:07:20;5.47;;;2.85;;
55216;SDS011;41086;46.736;15.666;2024-01-16T14:09:48;6.88;;;3.42;;
55216;SDS011;41086;46.736;15.666;2024-01-16T14:12:15;10.20;;;4.10;;
55216;SDS011;41086;46.736;15.666;2024-01-16T14:14:42;4.35;;;3.13;;
55216;SDS011;41086;46.736;15.666;2024-01-16T14:17:09;8.07;;;4.35;;
55216;SDS011;41086;46.736;15.666;2024-01-16T14:19:37;5.85;;;3.58;;
55216;SDS011;41086;46.736;15.666;2024-01-16T14:22:05;8.98;;;4.45;;
55216;SDS011;41086;46.736;15.666;2024-01-16T14:26:59;6.90;;;4.05;;
55216;SDS011;41086;46.736;15.666;2024-01-16T14:31:53;5.13;;;3.17;;
55216;SDS011;41086;46.736;15.666;2024-01-16T14:34:23;9.45;;;3.03;;
55216;SDS011;41086;46.736;15.666;2024-01-16T14:36:50;7.25;;;3.45;;
55216;SDS011;41086;46.736;15.666;2024-01-16T14:39:17;6.97;;;3.35;;
55216;SDS011;41086;46.736;15.666;2024-01-16T14:41:52;6.05;;;3.55;;
55216;SDS011;41086;46.736;15.666;2024-01-16T14:44:19;6.03;;;3.80;;
55216;SDS011;41086;46.736;15.666;2024-01-16T14:46:46;6.47;;;3.95;;
55216;SDS011;41086;46.736;15.666;2024-01-16T14:49:17;5.35;;;3.25;;
55216;SDS011;41086;46.736;15.666;2024-01-16T14:51:44;7.97;;;4.03;;
55216;SDS011;41086;46.736;15.666;2024-01-16T14:54:11;6.47;;;4.20;;
55216;SDS011;41086;46.736;15.666;2024-01-16T14:56:37;9.63;;;5.10;;
55216;SDS011;41086;46.736;15.666;2024-01-16T14:59:04;6.63;;;3.83;;
55216;SDS011;41086;46.736;15.666;2024-01-16T15:01:31;6.25;;;3.67;;
55216;SDS011;41086;46.736;15.666;2024-01-16T15:03:59;5.15;;;3.30;;
55216;SDS011;41086;46.736;15.666;2024-01-16T15:06:26;7.65;;;4.35;;
55216;SDS011;41086;46.736;15.666;2024-01-16T15:08:54;6.82;;;3.97;;
55216;SDS011;41086;46.736;15.666;2024-01-16T15:13:48;10.27;;;4.28;;
55216;SDS011;41086;46.736;15.666;2024-01-16T15:16:16;8.55;;;4.55;;
55216;SDS011;41086;46.736;15.666;2024-01-16T15:18:45;8.85;;;4.57;;
55216;SDS011;41086;46.736;15.666;2024-01-16T15:21:12;11.15;;;4.82;;
55216;SDS011;41086;46.736;15.666;2024-01-16T15:23:39;8.48;;;5.43;;
55216;SDS011;41086;46.736;15.666;2024-01-16T15:26:06;9.07;;;4.10;;
55216;SDS011;41086;46.736;15.666;2024-01-16T15:28:32;9.48;;;5.10;;
55216;SDS011;41086;46.736;15.666;2024-01-16T15:31:00;8.38;;;5.18;;